createdAt,value
2023-05-25T00:00:38.294Z,18.56
2023-05-25T00:03:45.647Z,18.70
2023-05-25T00:06:52.912Z,18.50
2023-05-25T00:09:58.419Z,18.38
2023-05-25T00:13:04.918Z,18.48
2023-05-25T00:16:10.422Z,18.32
2023-05-25T00:19:12.692Z,18.53
2023-05-25T00:22:11.717Z,18.54
2023-05-25T00:25:19.475Z,18.23
2023-05-25T00:28:26.572Z,18.01
2023-05-25T00:31:33.506Z,17.95
2023-05-25T00:34:40.347Z,18.13
2023-05-25T00:37:39.765Z,18.35
2023-05-25T00:40:45.568Z,18.35
2023-05-25T00:43:53.597Z,18.24
2023-05-25T00:47:03.872Z,18.48
2023-05-25T00:50:07.882Z,18.44
2023-05-25T00:53:13.353Z,18.48
2023-05-25T00:56:23.233Z,18.58
2023-05-25T00:59:31.609Z,18.77
2023-05-25T01:02:38.319Z,18.45
2023-05-25T01:05:46.014Z,18.60
2023-05-25T01:08:52.452Z,18.42
2023-05-25T01:12:00.982Z,18.54
2023-05-25T01:15:00.810Z,18.33
2023-05-25T01:18:06.686Z,18.30
2023-05-25T01:21:36.913Z,18.10
2023-05-25T01:24:55.518Z,18.16
2023-05-25T01:28:32.517Z,18.01
2023-05-25T01:31:38.350Z,17.86
2023-05-25T01:34:46.010Z,17.90
2023-05-25T01:37:53.123Z,18.13
2023-05-25T01:40:59.938Z,17.98
2023-05-25T01:44:06.076Z,17.93
2023-05-25T01:47:22.506Z,17.90
2023-05-25T01:50:41.533Z,17.95
2023-05-25T01:54:00.541Z,18.46
2023-05-25T01:57:05.942Z,18.08
2023-05-25T02:00:11.993Z,18.81
2023-05-25T02:03:20.144Z,17.84
2023-05-25T02:06:26.499Z,17.45
2023-05-25T02:09:33.583Z,17.53
2023-05-25T02:12:38.519Z,18.02
2023-05-25T02:15:46.486Z,18.18
2023-05-25T02:18:53.567Z,18.26
2023-05-25T02:21:59.453Z,18.34
2023-05-25T02:25:05.639Z,17.21
2023-05-25T02:28:12.460Z,17.35
2023-05-25T02:31:18.793Z,16.97
2023-05-25T02:34:24.995Z,17.30
2023-05-25T02:37:30.450Z,17.58
2023-05-25T02:40:35.685Z,17.69
2023-05-25T02:43:40.852Z,17.73
2023-05-25T02:46:47.009Z,17.90
2023-05-25T02:49:52.245Z,18.20
2023-05-25T02:52:58.468Z,18.45
2023-05-25T02:56:05.499Z,18.89
2023-05-25T02:59:11.603Z,18.87
2023-05-25T03:02:11.143Z,19.12
2023-05-25T03:05:16.164Z,18.97
2023-05-25T03:08:22.028Z,19.02
2023-05-25T03:11:30.797Z,19.19
2023-05-25T03:14:36.645Z,19.34
2023-05-25T03:17:43.257Z,19.55
2023-05-25T03:20:49.033Z,19.51
2023-05-25T03:23:55.772Z,20.03
2023-05-25T03:27:01.464Z,19.98
2023-05-25T03:30:07.365Z,20.25
2023-05-25T03:33:13.010Z,20.48
2023-05-25T03:36:24.391Z,20.89
2023-05-25T03:39:30.804Z,21.28
2023-05-25T03:42:36.161Z,21.42
2023-05-25T03:45:41.862Z,21.47
2023-05-25T03:48:47.947Z,21.73
2023-05-25T03:51:55.724Z,21.74
2023-05-25T03:55:02.029Z,21.90
2023-05-25T03:58:09.782Z,22.08
2023-05-25T04:01:17.097Z,22.27
2023-05-25T04:04:23.893Z,22.43
2023-05-25T04:07:30.930Z,22.43
2023-05-25T04:10:37.534Z,22.70
2023-05-25T04:13:43.484Z,22.50
2023-05-25T04:16:49.921Z,22.44
2023-05-25T04:19:57.270Z,22.37
2023-05-25T04:22:56.938Z,22.37
2023-05-25T04:26:04.937Z,22.35
2023-05-25T04:29:13.997Z,22.44
2023-05-25T04:32:25.542Z,22.35
2023-05-25T04:35:35.612Z,22.47
2023-05-25T04:38:41.619Z,22.79
2023-05-25T04:41:47.079Z,23.19
2023-05-25T04:44:55.345Z,23.42
2023-05-25T04:48:04.760Z,23.56
2023-05-25T04:51:11.097Z,23.84
2023-05-25T04:54:16.894Z,23.79
2023-05-25T04:57:22.696Z,23.90
2023-05-25T05:00:29.115Z,24.14
2023-05-25T05:03:34.405Z,24.45
2023-05-25T05:06:40.067Z,24.64
2023-05-25T05:09:48.770Z,24.84
2023-05-25T05:12:55.337Z,24.93
2023-05-25T05:16:04.181Z,24.64
2023-05-25T05:19:10.844Z,24.70
2023-05-25T05:22:16.370Z,24.49
2023-05-25T05:25:23.163Z,24.35
2023-05-25T05:28:28.542Z,24.19
2023-05-25T05:31:35.713Z,24.22
2023-05-25T05:34:42.208Z,24.50
2023-05-25T05:37:54.472Z,24.54
2023-05-25T05:41:01.344Z,24.75
2023-05-25T05:44:07.635Z,24.86
2023-05-25T05:47:13.956Z,25.04
2023-05-25T05:50:20.671Z,25.16
2023-05-25T05:53:26.004Z,25.45
2023-05-25T05:56:36.866Z,25.74
2023-05-25T05:59:42.068Z,25.93
2023-05-25T06:02:47.720Z,26.08
2023-05-25T06:05:55.290Z,26.25
2023-05-25T06:09:01.163Z,26.27
2023-05-25T06:12:05.498Z,26.59
2023-05-25T06:15:11.643Z,26.78
2023-05-25T06:18:19.703Z,27.00
2023-05-25T06:21:25.194Z,27.42
2023-05-25T06:24:30.575Z,27.44
2023-05-25T06:27:36.593Z,27.99
2023-05-25T06:30:44.050Z,28.40
2023-05-25T06:33:50.470Z,28.48
2023-05-25T06:36:56.424Z,28.46
2023-05-25T06:40:01.340Z,28.32
2023-05-25T06:43:06.732Z,28.24
2023-05-25T06:50:24.894Z,27.76
2023-05-25T06:53:29.677Z,27.95
2023-05-25T06:56:35.837Z,27.99
2023-05-25T06:59:40.868Z,27.79
2023-05-25T07:02:46.078Z,27.54
2023-05-25T07:05:51.609Z,27.76
2023-05-25T07:08:58.501Z,27.83
2023-05-25T07:11:57.452Z,27.83
2023-05-25T07:15:03.739Z,27.59
2023-05-25T07:18:08.963Z,27.55
2023-05-25T07:21:13.852Z,27.41
2023-05-25T07:24:20.044Z,26.46
2023-05-25T07:27:28.234Z,26.40
2023-05-25T07:30:34.262Z,26.58
2023-05-25T07:33:39.966Z,26.79
2023-05-25T07:36:46.398Z,26.76
2023-05-25T07:39:52.014Z,26.72
2023-05-25T07:42:58.142Z,26.89
2023-05-25T07:46:03.635Z,27.14
2023-05-25T07:49:09.885Z,27.14
2023-05-25T07:52:14.993Z,27.39
2023-05-25T07:55:25.621Z,27.39
2023-05-25T07:58:31.148Z,27.10
2023-05-25T08:01:39.567Z,27.03
2023-05-25T08:04:46.606Z,26.96
2023-05-25T08:07:51.714Z,26.82
2023-05-25T08:11:00.047Z,26.80
2023-05-25T08:14:05.076Z,26.65
2023-05-25T08:17:11.328Z,26.36
2023-05-25T08:20:17.477Z,26.14
2023-05-25T08:23:22.367Z,26.05
2023-05-25T08:26:38.384Z,26.00
2023-05-25T08:29:33.426Z,26.05
2023-05-25T08:32:39.399Z,26.03
2023-05-25T08:35:47.588Z,25.87
2023-05-25T08:38:53.271Z,25.67
2023-05-25T08:42:01.446Z,25.67
2023-05-25T08:45:12.455Z,25.51
2023-05-25T08:48:35.568Z,25.39
2023-05-25T08:51:26.441Z,25.55
2023-05-25T08:54:33.738Z,25.48
2023-05-25T08:58:05.023Z,25.52
2023-05-25T09:01:14.769Z,25.32
2023-05-25T09:04:21.482Z,25.31
2023-05-25T09:07:27.101Z,25.33
2023-05-25T09:10:35.466Z,25.31
2023-05-25T09:13:41.563Z,25.31
2023-05-25T09:16:47.443Z,25.18
2023-05-25T09:19:53.478Z,25.57
2023-05-25T09:23:03.104Z,25.12
2023-05-25T09:37:38.979Z,24.94
2023-05-25T09:40:49.418Z,25.09
2023-05-25T09:44:06.658Z,25.01
2023-05-25T09:47:01.643Z,25.03
2023-05-25T09:50:08.594Z,24.98
2023-05-25T09:53:15.329Z,24.86
2023-05-25T09:56:21.644Z,24.99
2023-05-25T09:59:28.259Z,24.70
2023-05-25T10:02:34.900Z,24.57
2023-05-25T10:05:39.872Z,24.34
2023-05-25T10:08:45.766Z,24.59
2023-05-25T10:11:51.455Z,24.52
2023-05-25T10:14:56.974Z,24.53
2023-05-25T10:18:09.478Z,24.55
2023-05-25T10:21:18.810Z,24.69
2023-05-25T10:24:32.164Z,24.72
2023-05-25T10:27:39.171Z,24.71
2023-05-25T10:30:44.493Z,24.81
2023-05-25T10:33:52.501Z,24.93
2023-05-25T10:36:58.381Z,24.83
2023-05-25T10:40:04.838Z,25.03
2023-05-25T10:43:12.075Z,25.11
2023-05-25T10:46:21.442Z,25.07
2023-05-25T10:49:27.597Z,25.02
2023-05-25T10:52:34.445Z,25.05
2023-05-25T10:55:39.470Z,24.90
2023-05-25T10:58:46.947Z,24.94
2023-05-25T11:02:04.176Z,25.11
2023-05-25T11:05:45.726Z,25.45
2023-05-25T11:09:13.474Z,25.44
2023-05-25T11:12:20.211Z,25.66
2023-05-25T11:15:29.351Z,25.72
2023-05-25T11:18:35.419Z,26.04
2023-05-25T11:21:56.856Z,26.32
2023-05-25T11:25:07.506Z,26.51
2023-05-25T11:28:21.004Z,26.29
2023-05-25T11:31:30.649Z,26.53
2023-05-25T11:34:37.255Z,26.69
2023-05-25T11:40:49.236Z,26.94
2023-05-25T11:43:56.171Z,26.73
2023-05-25T11:47:03.681Z,26.70
2023-05-25T11:50:12.730Z,26.70
2023-05-25T11:53:21.890Z,26.56
2023-05-25T11:56:35.584Z,26.59
2023-05-25T11:59:37.218Z,26.71
2023-05-25T12:02:45.220Z,26.87
2023-05-25T12:05:54.588Z,26.91
2023-05-25T12:08:59.577Z,26.99
2023-05-25T12:12:05.833Z,27.11
2023-05-25T12:15:11.255Z,27.10
2023-05-25T12:18:09.372Z,27.17
2023-05-25T12:21:16.137Z,27.07
2023-05-25T12:24:16.823Z,27.15
2023-05-25T12:27:12.131Z,27.36
2023-05-25T12:30:18.619Z,27.36
2023-05-25T12:36:26.647Z,27.31
2023-05-25T12:39:47.149Z,27.32
2023-05-25T12:42:54.522Z,27.40
2023-05-25T12:46:01.366Z,27.49
2023-05-25T12:49:05.869Z,27.45
2023-05-25T12:52:15.446Z,27.45
2023-05-25T12:55:49.090Z,27.61
2023-05-25T12:58:55.599Z,27.66
2023-05-25T13:02:01.509Z,27.16
2023-05-25T13:05:07.933Z,27.07
2023-05-25T13:08:14.588Z,27.11
2023-05-25T13:11:21.428Z,27.28
2023-05-25T13:14:28.902Z,27.13
2023-05-25T13:17:35.363Z,27.35
2023-05-25T13:20:41.608Z,27.38
2023-05-25T13:23:48.930Z,27.53
2023-05-25T13:26:55.847Z,27.63
2023-05-25T13:30:02.701Z,27.70
2023-05-25T13:33:08.054Z,27.80
2023-05-25T13:36:15.492Z,27.62
2023-05-25T13:39:21.737Z,27.73
2023-05-25T13:42:26.574Z,27.98
2023-05-25T13:45:32.430Z,28.16
2023-05-25T13:48:38.534Z,28.06
2023-05-25T13:51:45.535Z,28.21
2023-05-25T13:54:51.500Z,28.26
2023-05-25T13:57:58.560Z,28.36
2023-05-25T14:01:03.872Z,28.19
2023-05-25T14:04:09.254Z,27.98
2023-05-25T14:07:17.376Z,28.14
2023-05-25T14:10:17.702Z,28.32
2023-05-25T14:13:23.059Z,28.11
2023-05-25T14:16:28.982Z,28.27
2023-05-25T14:19:34.011Z,28.27
2023-05-25T14:22:39.584Z,28.28
2023-05-25T14:25:45.505Z,28.13
2023-05-25T14:28:50.943Z,28.07
2023-05-25T14:31:57.913Z,27.70
2023-05-25T14:35:03.336Z,27.79
2023-05-25T14:38:09.337Z,27.85
2023-05-25T14:41:16.094Z,27.53
2023-05-25T14:44:22.218Z,27.58
2023-05-25T14:47:28.059Z,27.56
2023-05-25T14:50:34.029Z,27.50
2023-05-25T14:53:39.742Z,27.55
2023-05-25T14:56:46.948Z,27.28
2023-05-25T14:59:48.224Z,27.16
2023-05-25T15:02:54.909Z,27.14
2023-05-25T15:06:01.695Z,27.01
2023-05-25T15:09:07.225Z,26.91
2023-05-25T15:12:14.601Z,26.97
2023-05-25T15:15:19.824Z,26.86
2023-05-25T15:18:18.481Z,26.77
2023-05-25T15:21:23.817Z,26.78
2023-05-25T15:24:29.151Z,26.63
2023-05-25T15:27:34.406Z,26.60
2023-05-25T15:30:41.450Z,26.62
2023-05-25T15:33:53.759Z,26.68
2023-05-25T15:36:55.369Z,26.42
2023-05-25T15:40:01.371Z,26.52
2023-05-25T15:43:08.159Z,26.25
2023-05-25T15:46:14.806Z,26.36
2023-05-25T15:49:20.237Z,26.41
2023-05-25T15:52:25.835Z,26.10
2023-05-25T15:55:31.139Z,25.85
2023-05-25T15:58:39.675Z,25.64
2023-05-25T16:01:45.682Z,25.64
2023-05-25T16:04:51.197Z,25.41
2023-05-25T16:07:57.705Z,25.38
2023-05-25T16:11:03.612Z,25.42
2023-05-25T16:14:12.109Z,25.05
2023-05-25T16:17:18.608Z,25.03
2023-05-25T16:20:25.107Z,25.05
2023-05-25T16:23:31.739Z,24.86
2023-05-25T16:26:37.277Z,24.76
2023-05-25T16:29:43.735Z,24.63
2023-05-25T16:32:49.514Z,24.69
2023-05-25T16:35:55.517Z,24.66
2023-05-25T16:39:01.784Z,24.61
2023-05-25T16:42:07.389Z,24.57
2023-05-25T16:45:13.704Z,24.49
2023-05-25T16:48:20.841Z,24.32
2023-05-25T16:51:20.642Z,24.62
2023-05-25T16:54:26.318Z,24.31
2023-05-25T16:57:24.670Z,24.39
2023-05-25T17:00:30.764Z,24.25
2023-05-25T17:03:36.988Z,24.30
2023-05-25T17:06:44.053Z,24.24
2023-05-25T17:09:50.123Z,24.63
2023-05-25T17:12:56.838Z,24.52
2023-05-25T17:16:02.971Z,24.45
2023-05-25T17:19:10.136Z,24.50
2023-05-25T17:22:16.585Z,24.51
2023-05-25T17:25:22.862Z,24.74
2023-05-25T17:28:28.097Z,24.81
2023-05-25T17:31:36.408Z,24.55
2023-05-25T17:34:42.723Z,24.50
2023-05-25T17:37:49.327Z,24.48
2023-05-25T17:40:54.529Z,24.43
2023-05-25T17:44:01.389Z,24.52
2023-05-25T17:47:10.726Z,24.40
2023-05-25T17:50:16.123Z,24.61
2023-05-25T17:53:21.338Z,24.57
2023-05-25T17:56:29.073Z,24.63
2023-05-25T17:59:35.070Z,24.43
2023-05-25T18:02:41.999Z,24.23
2023-05-25T18:05:48.628Z,24.18
2023-05-25T18:08:55.278Z,24.58
2023-05-25T18:12:01.904Z,24.44
2023-05-25T18:15:08.818Z,24.21
2023-05-25T18:18:14.888Z,24.27
2023-05-25T18:21:21.432Z,24.34
2023-05-25T18:24:27.553Z,24.32
2023-05-25T18:27:32.706Z,24.33
2023-05-25T18:30:34.702Z,24.21
2023-05-25T18:33:34.048Z,23.97
2023-05-25T18:36:40.156Z,24.05
2023-05-25T18:39:46.461Z,23.68
2023-05-25T18:42:52.091Z,23.88
2023-05-25T18:45:58.876Z,24.06
2023-05-25T18:49:03.406Z,24.09
2023-05-25T18:52:09.040Z,24.53
2023-05-25T18:55:14.157Z,24.38
2023-05-25T18:58:19.556Z,24.19
2023-05-25T19:01:24.814Z,24.42
2023-05-25T19:04:30.484Z,24.09
2023-05-25T19:07:37.668Z,24.20
2023-05-25T19:10:44.457Z,23.90
2023-05-25T19:13:50.244Z,23.89
2023-05-25T19:16:56.832Z,23.75
2023-05-25T19:20:03.772Z,23.71
2023-05-25T19:23:09.801Z,23.57
2023-05-25T19:26:15.438Z,23.69
2023-05-25T19:29:22.041Z,23.68
2023-05-25T19:32:29.040Z,23.79
2023-05-25T19:35:34.798Z,23.77
2023-05-25T19:38:41.753Z,23.55
2023-05-25T19:41:45.915Z,23.46
2023-05-25T19:44:52.187Z,23.46
2023-05-25T19:47:59.793Z,23.39
2023-05-25T19:51:05.702Z,23.40
2023-05-25T19:54:11.709Z,23.17
2023-05-25T19:57:20.284Z,22.95
2023-05-25T20:00:27.366Z,23.29
2023-05-25T20:03:34.844Z,23.45
2023-05-25T20:06:40.917Z,23.35
2023-05-25T20:09:39.482Z,23.26
2023-05-25T20:12:31.815Z,23.03
2023-05-25T20:15:37.087Z,23.37
2023-05-25T20:18:42.652Z,23.01
2023-05-25T20:21:47.699Z,22.92
2023-05-25T20:24:53.860Z,22.67
2023-05-25T20:27:59.743Z,22.58
2023-05-25T20:31:06.095Z,22.77
2023-05-25T20:34:11.833Z,22.66
2023-05-25T20:37:18.685Z,22.71
2023-05-25T20:40:24.494Z,22.72
2023-05-25T20:43:31.020Z,22.62
2023-05-25T20:46:36.996Z,22.56
2023-05-25T20:49:42.771Z,22.29
2023-05-25T20:52:48.358Z,22.29
2023-05-25T20:55:55.394Z,22.32
2023-05-25T20:59:01.803Z,22.27
2023-05-25T21:02:07.207Z,22.12
2023-05-25T21:05:14.348Z,22.07
2023-05-25T21:08:19.895Z,21.76
2023-05-25T21:11:25.214Z,21.86
2023-05-25T21:14:31.329Z,22.11
2023-05-25T21:17:37.952Z,22.11
2023-05-25T21:20:44.793Z,22.13
2023-05-25T21:23:51.096Z,22.07
2023-05-25T21:26:57.617Z,21.88
2023-05-25T21:30:04.361Z,21.88
2023-05-25T21:33:10.995Z,21.94
2023-05-25T21:36:16.524Z,22.00
2023-05-25T21:39:22.129Z,21.43
2023-05-25T21:42:28.220Z,21.41
2023-05-25T21:45:34.678Z,21.12
2023-05-25T21:48:41.330Z,21.41
2023-05-25T21:51:46.961Z,21.78
2023-05-25T21:54:51.659Z,21.77
2023-05-25T21:57:57.334Z,21.70
2023-05-25T22:01:04.456Z,21.72
2023-05-25T22:04:10.798Z,21.71
2023-05-25T22:07:15.716Z,21.82
2023-05-25T22:10:22.503Z,21.82
2023-05-25T22:13:29.165Z,21.82
2023-05-25T22:16:35.431Z,22.03
2023-05-25T22:19:43.205Z,21.64
2023-05-25T22:22:49.740Z,21.33
2023-05-25T22:25:54.156Z,21.47
2023-05-25T22:29:00.485Z,21.54
2023-05-25T22:32:06.132Z,21.61
2023-05-25T22:35:12.472Z,21.54
2023-05-25T22:38:18.472Z,21.76
2023-05-25T22:41:23.122Z,21.81
2023-05-25T22:44:30.029Z,21.80
2023-05-25T22:47:35.975Z,21.73
2023-05-25T22:50:41.901Z,21.65
2023-05-25T22:53:47.948Z,21.59
2023-05-25T22:56:47.095Z,21.62
2023-05-25T22:59:53.857Z,21.50
2023-05-25T23:02:53.813Z,21.45
2023-05-25T23:06:00.305Z,21.39
2023-05-25T23:09:06.879Z,21.32
2023-05-25T23:12:12.274Z,21.29
2023-05-25T23:15:18.772Z,21.10
2023-05-25T23:18:23.701Z,21.19
2023-05-25T23:21:29.549Z,21.29
2023-05-25T23:24:35.851Z,21.13
2023-05-25T23:27:42.026Z,21.04
2023-05-25T23:30:47.761Z,20.81
2023-05-25T23:33:54.139Z,21.08
2023-05-25T23:37:00.825Z,21.17
2023-05-25T23:40:05.642Z,21.30
2023-05-25T23:43:10.788Z,21.29
2023-05-25T23:46:16.356Z,21.51
2023-05-25T23:49:22.112Z,21.72
2023-05-25T23:52:28.566Z,21.69
2023-05-25T23:55:35.302Z,21.28
2023-05-25T23:58:33.885Z,20.93
